Time;durP1;ratioP1;P1;durP2;ratioP2;P2;SDS_P1;SDS_P2;PMS_P1;PMS_P2;Temp;Humidity;BMP_temperature;BMP_pressure;BME280_temperature;BME280_humidity;BME280_pressure;Samples;Min_cycle;Max_cycle;Signal;HPM_P1;HPM_P2
2022/01/07 00:02:09;;;;;;;3.22;1.30;;;1.60;80.70;;;;;;4977887;28;20110;-68
2022/01/07 00:04:36;;;;;;;2.45;1.45;;;1.70;80.40;;;;;;4977742;28;20069;-68
2022/01/07 00:07:03;;;;;;;2.25;1.10;;;1.70;79.60;;;;;;4983510;28;20030;-70
2022/01/07 00:09:29;;;;;;;3.58;1.25;;;1.60;80.40;;;;;;4976044;28;20034;-69
2022/01/07 00:11:55;;;;;;;4.25;1.20;;;1.50;80.10;;;;;;4980402;28;20050;-69
2022/01/07 00:14:20;;;;;;;2.22;1.40;;;1.50;81.50;;;;;;4980315;28;20042;-69
2022/01/07 00:16:49;;;;;;;17.88;9.45;;;1.60;81.80;;;;;;4983277;28;20467;-69
2022/01/07 00:19:15;;;;;;;82.97;47.60;;;1.70;82.40;;;;;;4979501;28;20085;-70
2022/01/07 00:21:41;;;;;;;24.35;13.73;;;1.70;82.40;;;;;;4980387;28;20027;-70
2022/01/07 00:24:07;;;;;;;70.60;43.17;;;1.80;82.00;;;;;;4977501;28;20108;-67
2022/01/07 00:26:33;;;;;;;18.77;11.73;;;1.90;81.60;;;;;;4979831;28;20039;-70
2022/01/07 00:28:59;;;;;;;24.95;20.17;;;1.90;82.20;;;;;;4980119;28;20065;-70
2022/01/07 00:31:24;;;;;;;6.47;3.72;;;1.90;81.80;;;;;;4975956;28;20035;-69
2022/01/07 00:33:50;;;;;;;3.20;1.75;;;1.80;81.30;;;;;;4979615;28;20042;-71
2022/01/07 00:36:16;;;;;;;6.93;5.53;;;1.70;80.90;;;;;;4982426;28;20034;-70
2022/01/07 00:38:41;;;;;;;3.42;2.35;;;1.60;81.30;;;;;;4984359;28;20057;-70
2022/01/07 00:41:07;;;;;;;3.72;2.28;;;1.60;81.80;;;;;;4980136;28;20066;-69
2022/01/07 00:43:33;;;;;;;6.40;3.97;;;1.60;81.90;;;;;;4982738;28;20088;-69
2022/01/07 00:45:59;;;;;;;5.28;4.10;;;1.60;81.90;;;;;;4986225;28;20030;-69
2022/01/07 00:48:25;;;;;;;4.55;1.98;;;1.60;81.70;;;;;;4980157;28;21053;-70
2022/01/07 00:50:51;;;;;;;3.13;1.20;;;1.60;81.60;;;;;;4978584;28;20031;-69
2022/01/07 00:53:17;;;;;;;4.40;1.67;;;1.50;81.60;;;;;;4984257;28;20122;-69
2022/01/07 00:55:43;;;;;;;2.42;1.60;;;1.50;81.90;;;;;;4981908;28;20085;-70
2022/01/07 00:58:10;;;;;;;4.45;1.48;;;1.40;82.70;;;;;;4984218;28;20030;-69
2022/01/07 01:00:36;;;;;;;5.30;1.58;;;1.50;82.90;;;;;;4979772;28;20069;-69
2022/01/07 01:03:02;;;;;;;2.22;1.15;;;1.50;83.40;;;;;;4980897;28;20034;-69
2022/01/07 01:05:28;;;;;;;3.90;1.13;;;1.60;83.10;;;;;;4981650;28;20049;-70
2022/01/07 01:07:55;;;;;;;2.25;1.58;;;1.70;83.60;;;;;;4979184;28;20022;-70
2022/01/07 01:10:24;;;;;;;5.05;1.55;;;1.70;83.60;;;;;;4985663;28;20470;-69
2022/01/07 01:12:50;;;;;;;6.57;1.83;;;1.70;83.60;;;;;;4979896;28;21383;-69
2022/01/07 01:15:20;;;;;;;2.92;1.23;;;1.70;84.00;;;;;;4980880;28;20050;-69
2022/01/07 01:17:46;;;;;;;4.25;1.88;;;1.80;83.80;;;;;;4982932;28;20109;-69
2022/01/07 01:20:13;;;;;;;4.93;1.70;;;1.80;84.00;;;;;;4979722;28;20038;-71
2022/01/07 01:22:39;;;;;;;4.65;1.45;;;1.80;83.70;;;;;;4984044;28;20034;-69
2022/01/07 01:25:07;;;;;;;3.78;1.77;;;1.80;83.50;;;;;;4984106;28;20122;-70
2022/01/07 01:27:33;;;;;;;2.53;1.90;;;1.90;83.40;;;;;;4979884;28;20440;-70
2022/01/07 01:30:01;;;;;;;5.35;1.48;;;1.90;82.70;;;;;;4981474;28;20545;-70
2022/01/07 01:32:26;;;;;;;4.30;1.48;;;1.90;81.30;;;;;;4984188;28;20030;-70
2022/01/07 01:34:52;;;;;;;3.13;1.10;;;1.90;81.40;;;;;;4978495;28;20412;-70
2022/01/07 01:37:18;;;;;;;2.90;1.05;;;1.70;80.60;;;;;;4982892;28;20034;-70
2022/01/07 01:39:43;;;;;;;5.10;1.40;;;1.60;80.80;;;;;;4982688;28;20038;-68
2022/01/07 01:42:09;;;;;;;4.45;1.30;;;1.50;79.90;;;;;;4981860;28;20023;-68
2022/01/07 01:44:35;;;;;;;4.82;1.38;;;1.40;80.50;;;;;;4978193;28;20118;-70
2022/01/07 01:47:07;;;;;;;1.77;1.05;;;1.30;80.10;;;;;;5041979;28;20498;-70
2022/01/07 01:49:33;;;;;;;2.17;1.20;;;1.30;80.70;;;;;;5037129;28;20084;-68
2022/01/07 01:52:00;;;;;;;2.28;1.10;;;1.30;80.10;;;;;;5038240;28;20771;-69
2022/01/07 01:54:26;;;;;;;4.10;1.38;;;1.30;80.30;;;;;;5039941;28;20034;-68
2022/01/07 01:56:51;;;;;;;2.45;1.20;;;1.30;80.00;;;;;;5038437;28;20044;-68
2022/01/07 01:59:24;;;;;;;3.00;1.52;;;1.20;80.80;;;;;;5035834;28;20036;-68
2022/01/07 02:01:49;;;;;;;2.92;1.70;;;1.10;79.90;;;;;;5039754;28;20025;-68
2022/01/07 02:04:15;;;;;;;2.83;1.98;;;1.20;79.70;;;;;;5036978;28;20041;-67
2022/01/07 02:06:41;;;;;;;7.28;1.83;;;1.20;79.40;;;;;;5036931;28;20403;-69
2022/01/07 02:09:06;;;;;;;4.00;1.55;;;1.30;79.00;;;;;;5039868;28;20034;-69
2022/01/07 02:11:34;;;;;;;4.03;1.35;;;1.30;79.50;;;;;;5041211;28;20602;-68
2022/01/07 02:14:00;;;;;;;3.65;1.58;;;1.40;79.30;;;;;;5039242;28;20037;-69
2022/01/07 02:16:26;;;;;;;4.55;1.52;;;1.40;79.70;;;;;;5037680;28;20045;-68
2022/01/07 02:18:53;;;;;;;4.95;1.58;;;1.40;78.70;;;;;;5035126;28;20464;-68
2022/01/07 02:21:18;;;;;;;3.20;1.30;;;1.40;76.60;;;;;;5037992;28;20021;-68
2022/01/07 02:23:44;;;;;;;2.92;1.38;;;1.40;77.90;;;;;;5039068;28;20522;-69
2022/01/07 02:26:11;;;;;;;7.30;4.07;;;1.50;78.50;;;;;;5037547;28;20057;-68
2022/01/07 02:28:37;;;;;;;2.75;1.67;;;1.60;79.60;;;;;;5036352;28;20029;-68
2022/01/07 02:31:03;;;;;;;3.13;1.45;;;1.70;78.50;;;;;;5038694;28;20033;-69
2022/01/07 02:33:29;;;;;;;2.72;1.40;;;1.80;77.80;;;;;;5035569;28;20118;-69
2022/01/07 02:35:54;;;;;;;4.13;1.83;;;1.90;77.20;;;;;;5035842;28;20069;-69
2022/01/07 02:38:20;;;;;;;2.65;1.42;;;2.00;77.70;;;;;;5032589;28;20521;-69
2022/01/07 02:40:46;;;;;;;4.53;1.55;;;1.90;77.60;;;;;;5041274;28;20056;-69
2022/01/07 02:43:11;;;;;;;1.98;1.02;;;1.90;77.80;;;;;;5038623;28;20041;-69
2022/01/07 02:45:37;;;;;;;2.45;1.20;;;2.00;77.20;;;;;;5032195;28;20050;-69
2022/01/07 02:48:04;;;;;;;4.30;1.45;;;2.00;77.00;;;;;;5035547;28;20120;-69
2022/01/07 02:50:35;;;;;;;3.22;1.35;;;2.10;76.90;;;;;;5035347;28;20546;-69
2022/01/07 02:53:05;;;;;;;2.95;1.65;;;2.10;76.40;;;;;;5032692;28;20032;-69
2022/01/07 02:55:31;;;;;;;4.68;2.20;;;2.10;76.40;;;;;;5036772;28;20044;-70
2022/01/07 02:57:56;;;;;;;5.25;2.60;;;2.00;77.00;;;;;;5029247;28;20037;-69
2022/01/07 03:00:23;;;;;;;3.55;2.13;;;1.70;78.50;;;;;;5022197;28;20036;-69
2022/01/07 03:02:50;;;;;;;4.07;2.13;;;1.70;79.10;;;;;;5021332;28;20508;-69
2022/01/07 03:05:17;;;;;;;2.97;1.85;;;1.60;78.80;;;;;;5016787;28;20514;-69
2022/01/07 03:07:47;;;;;;;3.08;2.00;;;1.50;79.00;;;;;;5020148;28;20124;-69
2022/01/07 03:10:13;;;;;;;3.25;1.80;;;1.40;79.90;;;;;;5017541;28;20479;-69
2022/01/07 03:12:42;;;;;;;3.88;1.73;;;1.30;80.20;;;;;;5017978;28;20075;-69
2022/01/07 03:15:08;;;;;;;2.55;1.20;;;1.20;80.60;;;;;;5018912;28;20055;-68
2022/01/07 03:17:34;;;;;;;3.35;1.60;;;1.20;80.30;;;;;;5021653;28;20061;-69
2022/01/07 03:20:00;;;;;;;2.95;1.08;;;1.10;81.90;;;;;;5021163;28;20190;-69
2022/01/07 03:22:25;;;;;;;2.95;1.15;;;1.10;81.60;;;;;;5021341;28;20057;-69
2022/01/07 03:24:51;;;;;;;3.00;1.50;;;0.90;80.80;;;;;;5020661;28;20037;-68
2022/01/07 03:27:17;;;;;;;3.00;1.67;;;0.70;82.40;;;;;;5019242;28;20099;-69
2022/01/07 03:29:45;;;;;;;3.45;1.73;;;0.70;82.50;;;;;;5015398;28;20091;-69
2022/01/07 03:32:11;;;;;;;3.80;1.20;;;0.70;82.70;;;;;;5018537;28;21059;-69
2022/01/07 03:34:36;;;;;;;5.40;2.00;;;0.70;81.80;;;;;;5019561;28;20048;-69
2022/01/07 03:37:02;;;;;;;3.70;1.88;;;0.80;81.70;;;;;;5015905;28;20504;-69
2022/01/07 03:39:28;;;;;;;2.53;1.40;;;0.90;81.50;;;;;;5020117;28;20677;-69
2022/01/07 03:41:53;;;;;;;3.33;1.35;;;0.90;82.40;;;;;;5020550;28;20037;-69
2022/01/07 03:44:19;;;;;;;3.38;1.40;;;0.90;81.20;;;;;;5018569;28;20337;-69
2022/01/07 03:46:45;;;;;;;1.45;0.90;;;0.90;82.00;;;;;;5018219;28;20073;-69
2022/01/07 03:49:10;;;;;;;3.90;1.48;;;0.90;82.50;;;;;;5023204;28;20029;-69
2022/01/07 03:51:37;;;;;;;2.45;1.40;;;0.90;81.70;;;;;;5017982;28;20070;-69
2022/01/07 03:54:02;;;;;;;3.42;1.52;;;1.00;80.80;;;;;;5021371;28;20551;-69
2022/01/07 03:56:28;;;;;;;6.10;2.30;;;1.10;79.20;;;;;;5024267;28;20140;-70
2022/01/07 03:58:54;;;;;;;3.88;1.88;;;1.20;78.80;;;;;;5022194;28;20029;-69
2022/01/07 04:01:19;;;;;;;5.90;1.85;;;1.20;78.30;;;;;;5027600;28;20063;-69
2022/01/07 04:03:45;;;;;;;2.28;1.35;;;1.00;77.60;;;;;;5025483;28;20263;-69
2022/01/07 04:06:11;;;;;;;3.97;1.30;;;1.00;78.30;;;;;;5022410;28;20055;-69
2022/01/07 04:08:36;;;;;;;2.97;1.90;;;1.00;78.70;;;;;;5023277;28;20099;-69
2022/01/07 04:11:02;;;;;;;4.32;2.55;;;1.10;78.50;;;;;;5023004;28;20578;-69
2022/01/07 04:13:28;;;;;;;5.32;2.22;;;1.10;78.30;;;;;;5021145;28;20799;-70
2022/01/07 04:15:53;;;;;;;3.70;2.17;;;1.20;77.60;;;;;;5021610;28;20026;-69
2022/01/07 04:18:19;;;;;;;3.53;2.03;;;1.30;77.00;;;;;;5024201;28;20060;-69
2022/01/07 04:20:44;;;;;;;6.13;2.55;;;1.20;77.40;;;;;;5027226;28;20029;-69
2022/01/07 04:23:10;;;;;;;4.40;2.20;;;1.10;78.10;;;;;;5026931;28;20513;-69
2022/01/07 04:25:36;;;;;;;6.60;3.60;;;1.10;79.10;;;;;;5022898;28;20038;-69
2022/01/07 04:28:05;;;;;;;5.88;3.03;;;1.20;78.50;;;;;;5026285;28;20420;-69
2022/01/07 04:30:35;;;;;;;4.38;2.10;;;1.20;78.40;;;;;;5023197;28;20064;-70
2022/01/07 04:33:02;;;;;;;5.68;1.95;;;0.60;79.20;;;;;;5028576;28;20087;-69
2022/01/07 04:35:29;;;;;;;4.63;1.55;;;0.10;81.30;;;;;;5023557;28;20052;-69
2022/01/07 04:37:55;;;;;;;4.50;2.55;;;0.10;82.80;;;;;;5025645;28;20025;-69
2022/01/07 04:40:21;;;;;;;3.40;1.95;;;0.20;82.50;;;;;;5023238;28;20072;-69
2022/01/07 04:42:47;;;;;;;7.40;3.65;;;0.30;82.30;;;;;;5022277;28;20103;-69
2022/01/07 04:45:13;;;;;;;8.25;4.57;;;0.40;82.30;;;;;;5019374;28;20053;-69
2022/01/07 04:47:41;;;;;;;8.88;3.97;;;0.50;82.10;;;;;;5020753;28;20029;-69
2022/01/07 04:50:13;;;;;;;7.55;3.85;;;0.50;82.30;;;;;;5023198;28;20033;-70
2022/01/07 04:52:41;;;;;;;8.95;3.55;;;0.40;82.20;;;;;;5020595;28;20025;-69
2022/01/07 04:55:07;;;;;;;2.15;1.67;;;0.10;82.30;;;;;;5019547;28;20022;-68
2022/01/07 04:57:33;;;;;;;4.07;1.45;;;-0.70;84.20;;;;;;5018333;28;20088;-69
2022/01/07 04:59:58;;;;;;;3.25;1.40;;;-1.20;86.60;;;;;;5023299;28;20034;-69
2022/01/07 05:02:24;;;;;;;3.90;1.40;;;-1.10;88.00;;;;;;5019356;28;20120;-69
2022/01/07 05:04:49;;;;;;;4.07;1.80;;;-0.90;89.00;;;;;;5015304;28;20487;-70
2022/01/07 05:07:16;;;;;;;4.03;2.05;;;-0.80;87.90;;;;;;5024241;28;20033;-70
2022/01/07 05:09:42;;;;;;;4.05;1.63;;;-0.80;87.60;;;;;;5016791;28;20034;-69
2022/01/07 05:12:08;;;;;;;3.78;2.13;;;-0.80;87.80;;;;;;5022839;28;20025;-68
2022/01/07 05:14:34;;;;;;;5.53;2.08;;;-0.70;87.80;;;;;;5023566;28;20457;-69
2022/01/07 05:16:59;;;;;;;4.10;2.20;;;-0.70;88.50;;;;;;5017924;28;20045;-69
2022/01/07 05:19:25;;;;;;;4.68;2.40;;;-0.70;87.70;;;;;;5020915;28;20038;-69
2022/01/07 05:21:51;;;;;;;5.15;2.78;;;-0.60;87.10;;;;;;5020847;28;20411;-70
2022/01/07 05:24:16;;;;;;;5.13;3.47;;;-0.50;86.50;;;;;;5020400;28;20033;-70
2022/01/07 05:26:42;;;;;;;11.65;5.57;;;-0.40;85.80;;;;;;5020227;28;20034;-69
2022/01/07 05:29:08;;;;;;;13.18;7.25;;;-0.40;86.20;;;;;;5022375;28;20021;-71
2022/01/07 05:31:36;;;;;;;9.43;5.45;;;-0.40;86.10;;;;;;5020007;28;20034;-69
2022/01/07 05:34:02;;;;;;;10.50;6.15;;;-0.40;86.30;;;;;;5018588;28;20475;-69
2022/01/07 05:36:28;;;;;;;6.47;3.35;;;-0.40;87.30;;;;;;5017518;28;20079;-68
2022/01/07 05:38:53;;;;;;;5.68;2.10;;;-0.50;86.90;;;;;;5025328;28;20144;-69
2022/01/07 05:41:19;;;;;;;5.75;2.13;;;-0.70;85.50;;;;;;5021569;28;20029;-70
2022/01/07 05:43:45;;;;;;;7.05;3.65;;;-1.00;85.70;;;;;;5024067;28;20029;-70
2022/01/07 05:46:14;;;;;;;10.35;5.50;;;-1.60;87.70;;;;;;5016181;28;20076;-70
2022/01/07 05:48:46;;;;;;;6.03;3.80;;;-2.20;90.60;;;;;;5020881;28;20049;-70
2022/01/07 05:51:13;;;;;;;11.00;5.93;;;-2.50;91.80;;;;;;5021292;28;20025;-70
2022/01/07 05:53:39;;;;;;;13.27;7.13;;;-2.20;92.00;;;;;;5018699;28;20121;-70
2022/01/07 05:56:06;;;;;;;23.17;10.65;;;-1.90;91.60;;;;;;5019646;28;20025;-70
2022/01/07 05:58:32;;;;;;;17.95;7.68;;;-1.80;91.40;;;;;;5023852;28;20477;-69
2022/01/07 06:00:58;;;;;;;15.40;7.20;;;-1.60;91.20;;;;;;5019978;28;20029;-69
2022/01/07 06:03:24;;;;;;;6.00;2.40;;;-1.60;91.10;;;;;;5021697;28;20033;-71
2022/01/07 06:05:50;;;;;;;4.15;2.00;;;-1.60;90.00;;;;;;5018907;28;20076;-68
2022/01/07 06:08:15;;;;;;;4.38;2.13;;;-1.60;89.50;;;;;;5020579;28;20484;-70
2022/01/07 06:10:41;;;;;;;12.30;6.25;;;-1.60;89.60;;;;;;5020043;28;20484;-69
2022/01/07 06:13:07;;;;;;;16.42;5.07;;;-1.60;90.10;;;;;;5022654;28;20033;-68
2022/01/07 06:15:32;;;;;;;18.10;8.30;;;-1.60;90.70;;;;;;5024427;28;20430;-71
2022/01/07 06:17:59;;;;;;;15.00;8.48;;;-1.60;90.90;;;;;;5022149;28;20430;-69
2022/01/07 06:20:26;;;;;;;68.78;31.73;;;-1.60;90.50;;;;;;5024511;28;20463;-69
2022/01/07 06:22:51;;;;;;;46.45;21.90;;;-1.60;90.80;;;;;;5023284;28;20029;-68
2022/01/07 06:25:17;;;;;;;29.13;14.57;;;-1.60;90.50;;;;;;5020978;28;20569;-68
2022/01/07 06:27:43;;;;;;;11.85;5.97;;;-1.70;90.40;;;;;;5018443;28;20030;-68
2022/01/07 06:30:09;;;;;;;12.15;4.55;;;-1.70;90.00;;;;;;5021757;28;20073;-69
2022/01/07 06:32:35;;;;;;;9.00;4.00;;;-1.80;89.70;;;;;;5021306;28;20042;-68
2022/01/07 06:35:02;;;;;;;6.47;3.70;;;-1.80;89.60;;;;;;5021937;28;20040;-68
2022/01/07 06:37:27;;;;;;;18.73;10.20;;;-1.80;89.80;;;;;;5022711;28;20026;-69
2022/01/07 06:39:54;;;;;;;22.75;10.45;;;-1.90;90.30;;;;;;5025104;28;20029;-69
2022/01/07 06:42:20;;;;;;;15.70;6.07;;;-1.90;90.50;;;;;;5027228;28;20110;-68
2022/01/07 06:44:46;;;;;;;4.72;2.58;;;-1.90;90.90;;;;;;5025008;28;20513;-69
2022/01/07 06:47:11;;;;;;;12.90;5.40;;;-1.90;90.40;;;;;;5021773;28;20560;-69
2022/01/07 06:49:37;;;;;;;14.23;5.40;;;-1.90;90.60;;;;;;5025707;28;20539;-69
2022/01/07 06:52:03;;;;;;;18.50;9.05;;;-1.90;90.70;;;;;;5022693;28;21059;-69
2022/01/07 06:54:32;;;;;;;19.40;10.55;;;-1.90;90.70;;;;;;5030094;28;20131;-69
2022/01/07 06:56:58;;;;;;;6.82;4.22;;;-2.10;90.90;;;;;;5024090;28;20041;-69
2022/01/07 06:59:24;;;;;;;5.57;2.67;;;-2.20;90.70;;;;;;5021895;28;20026;-69
2022/01/07 07:01:49;;;;;;;4.13;2.10;;;-2.10;90.80;;;;;;5022961;28;20098;-69
2022/01/07 07:04:16;;;;;;;9.95;3.10;;;-2.20;90.50;;;;;;5026007;28;20033;-69
2022/01/07 07:06:42;;;;;;;7.43;3.75;;;-2.10;90.80;;;;;;5028025;28;20037;-69
2022/01/07 07:09:08;;;;;;;8.07;3.78;;;-2.10;90.90;;;;;;5022652;28;20108;-69
2022/01/07 07:11:34;;;;;;;3.47;2.00;;;-2.00;91.20;;;;;;5026665;28;20029;-69
2022/01/07 07:14:00;;;;;;;15.98;8.60;;;-2.10;91.10;;;;;;5019609;28;20034;-69
2022/01/07 07:16:25;;;;;;;142.63;63.42;;;-2.10;90.80;;;;;;5022503;28;20037;-69
2022/01/07 07:18:51;;;;;;;23.52;12.77;;;-2.00;90.60;;;;;;5022326;28;20085;-68
2022/01/07 07:21:17;;;;;;;19.35;11.27;;;-2.00;90.80;;;;;;5036782;28;20033;-69
2022/01/07 07:23:42;;;;;;;26.70;14.18;;;-1.90;91.40;;;;;;5023451;28;20040;-69
2022/01/07 07:26:08;;;;;;;67.78;27.40;;;-1.90;91.50;;;;;;5026405;28;20037;-69
2022/01/07 07:28:36;;;;;;;36.17;24.10;;;-1.80;91.10;;;;;;5026988;28;20438;-69
2022/01/07 07:31:05;;;;;;;53.08;23.92;;;-1.70;91.20;;;;;;5022392;28;21174;-69
2022/01/07 07:33:53;;;;;;;58.20;25.50;;;-1.70;91.30;;;;;;5023848;28;20026;-69
2022/01/07 07:36:31;;;;;;;126.15;55.55;;;-1.60;91.30;;;;;;5023293;28;20100;-69
2022/01/07 07:39:01;;;;;;;212.55;89.68;;;-1.50;90.50;;;;;;5027947;28;20037;-69
2022/01/07 07:41:27;;;;;;;155.95;58.72;;;-1.70;90.50;;;;;;5018898;28;20029;-69
2022/01/07 07:43:54;;;;;;;152.00;63.15;;;-1.70;90.50;;;;;;5024907;28;20026;-69
2022/01/07 07:46:20;;;;;;;237.55;88.85;;;-1.70;90.50;;;;;;5022479;28;20026;-69
2022/01/07 07:48:47;;;;;;;78.85;28.95;;;-1.70;90.60;;;;;;5025666;28;20072;-69
2022/01/07 07:51:14;;;;;;;102.43;36.67;;;-1.60;91.00;;;;;;5025849;28;20635;-69
2022/01/07 07:53:40;;;;;;;71.35;24.83;;;-1.50;90.70;;;;;;5017409;28;20076;-68
2022/01/07 07:56:06;;;;;;;58.08;21.25;;;-1.40;90.70;;;;;;5024376;28;20037;-69
2022/01/07 07:58:32;;;;;;;38.58;15.65;;;-1.20;90.50;;;;;;5021756;28;20597;-69
2022/01/07 08:00:57;;;;;;;21.25;8.95;;;-1.00;90.00;;;;;;5016572;28;20034;-69
2022/01/07 08:03:25;;;;;;;19.63;7.43;;;-0.80;89.00;;;;;;5013593;28;20022;-69
2022/01/07 08:05:51;;;;;;;20.73;8.02;;;-0.60;86.40;;;;;;5017141;28;20033;-69
2022/01/07 08:08:16;;;;;;;15.02;5.85;;;-0.40;86.10;;;;;;5022418;28;20033;-69
2022/01/07 08:10:50;;;;;;;38.38;14.65;;;-0.30;85.80;;;;;;5023151;28;20033;-68
2022/01/07 08:16:05;;;;;;;24.35;10.43;;;0.10;85.10;;;;;;5027352;28;20045;-69
2022/01/07 08:18:33;;;;;;;22.83;9.95;;;0.30;84.00;;;;;;5019409;28;20036;-69
2022/01/07 08:21:10;;;;;;;40.97;19.25;;;0.60;84.30;;;;;;5015081;28;20026;-69
2022/01/07 08:23:38;;;;;;;32.08;15.93;;;0.60;82.10;;;;;;5020798;28;20025;-70
2022/01/07 08:26:07;;;;;;;189.80;59.55;;;0.60;82.10;;;;;;5018750;28;20128;-69
2022/01/07 08:28:38;;;;;;;83.72;40.35;;;0.60;81.50;;;;;;5021489;28;20021;-69
2022/01/07 08:36:24;;;;;;;38.72;18.38;;;0.90;80.90;;;;;;5016500;28;20168;-69
2022/01/07 08:38:52;;;;;;;37.03;19.17;;;1.20;79.90;;;;;;5021998;28;20052;-68
2022/01/07 08:41:18;;;;;;;34.75;18.98;;;1.30;78.70;;;;;;5015624;28;20033;-70
2022/01/07 08:43:44;;;;;;;29.95;15.43;;;1.40;78.10;;;;;;5021533;28;20056;-69
2022/01/07 08:46:13;;;;;;;28.23;14.77;;;1.40;76.70;;;;;;5025697;28;20129;-69
2022/01/07 08:48:38;;;;;;;28.45;14.77;;;1.50;76.40;;;;;;5018731;28;20050;-69
2022/01/07 08:51:07;;;;;;;27.80;14.60;;;1.60;77.90;;;;;;5021926;28;20055;-69
2022/01/07 08:53:33;;;;;;;30.55;15.80;;;1.80;77.80;;;;;;5016826;28;20025;-69
2022/01/07 08:55:59;;;;;;;30.83;16.85;;;1.90;76.60;;;;;;5019755;28;20037;-69
2022/01/07 08:58:25;;;;;;;27.23;14.95;;;2.00;77.10;;;;;;5019055;28;20034;-69
2022/01/07 09:00:51;;;;;;;24.23;12.70;;;2.00;77.60;;;;;;5016541;28;20034;-69
2022/01/07 09:03:16;;;;;;;22.40;13.20;;;2.00;78.50;;;;;;5020794;28;20030;-69
2022/01/07 09:05:42;;;;;;;21.92;12.93;;;2.00;78.40;;;;;;5016187;28;20106;-69
2022/01/07 09:08:10;;;;;;;22.92;11.73;;;2.10;78.70;;;;;;5017924;28;20025;-69
2022/01/07 09:10:36;;;;;;;17.33;10.40;;;2.10;79.70;;;;;;5015687;28;20495;-68
2022/01/07 09:13:02;;;;;;;18.17;9.23;;;2.20;80.60;;;;;;5019953;28;20041;-69
2022/01/07 09:15:28;;;;;;;10.95;7.13;;;2.20;81.10;;;;;;5023962;28;21295;-69
2022/01/07 09:17:54;;;;;;;11.10;4.45;;;2.30;81.10;;;;;;5020391;28;20026;-69
2022/01/07 09:20:21;;;;;;;6.65;3.90;;;2.30;81.60;;;;;;5012965;28;20470;-67
2022/01/07 09:22:47;;;;;;;5.70;2.85;;;2.30;82.20;;;;;;5017973;28;20028;-69
2022/01/07 09:25:13;;;;;;;6.38;3.33;;;2.50;82.00;;;;;;5023133;28;20183;-70
2022/01/07 09:27:40;;;;;;;5.72;2.85;;;2.60;81.20;;;;;;5017360;28;20563;-69
2022/01/07 09:30:07;;;;;;;5.20;2.53;;;2.70;80.80;;;;;;5014550;28;20476;-69
2022/01/07 09:32:33;;;;;;;4.95;2.92;;;2.80;80.20;;;;;;5015071;28;20021;-68
2022/01/07 09:34:58;;;;;;;7.28;3.53;;;2.80;80.30;;;;;;5021151;28;20494;-69
2022/01/07 09:37:24;;;;;;;6.90;3.63;;;2.70;81.00;;;;;;5016524;28;20024;-69
2022/01/07 09:39:50;;;;;;;6.07;2.80;;;2.70;80.60;;;;;;5017237;28;20061;-68
2022/01/07 09:42:16;;;;;;;4.80;2.20;;;2.60;80.60;;;;;;5016109;28;20187;-69
2022/01/07 09:44:43;;;;;;;4.72;2.85;;;2.60;80.80;;;;;;5015463;28;20921;-69
2022/01/07 09:47:13;;;;;;;4.20;2.08;;;2.60;80.20;;;;;;5017806;28;20064;-68
2022/01/07 09:49:42;;;;;;;6.80;2.78;;;2.50;78.60;;;;;;5016165;28;20057;-69
2022/01/07 09:52:08;;;;;;;4.47;2.28;;;2.50;79.00;;;;;;5018430;28;20110;-69
2022/01/07 09:54:37;;;;;;;7.88;4.28;;;2.60;79.60;;;;;;5013492;28;20493;-69
2022/01/07 09:57:06;;;;;;;9.05;4.93;;;2.70;79.60;;;;;;5018681;28;20476;-68
2022/01/07 09:59:32;;;;;;;6.45;3.00;;;2.80;77.80;;;;;;5016688;28;20351;-67
2022/01/07 10:02:03;;;;;;;6.13;2.40;;;2.80;75.80;;;;;;5017673;28;20029;-69
2022/01/07 10:04:34;;;;;;;6.55;2.75;;;2.90;72.50;;;;;;5020296;28;20037;-69
2022/01/07 10:07:13;;;;;;;4.80;2.63;;;2.90;71.50;;;;;;5020040;28;20030;-69
2022/01/07 10:10:02;;;;;;;10.15;3.85;;;2.90;70.80;;;;;;5021534;28;20042;-69
2022/01/07 10:12:31;;;;;;;4.72;2.67;;;3.00;71.30;;;;;;5020770;28;20056;-69
2022/01/07 10:15:12;;;;;;;5.85;2.78;;;3.00;70.90;;;;;;5026189;28;20531;-69
2022/01/07 10:17:38;;;;;;;2.53;1.70;;;3.00;69.30;;;;;;5017822;28;20060;-68
2022/01/07 10:20:05;;;;;;;6.35;1.70;;;3.00;68.40;;;;;;5026805;28;20060;-68
2022/01/07 10:23:06;;;;;;;4.30;1.70;;;2.90;69.00;;;;;;5026629;28;20107;-69
2022/01/07 10:25:35;;;;;;;5.90;2.25;;;2.90;69.10;;;;;;5021697;28;20024;-68
2022/01/07 10:28:06;;;;;;;5.60;2.53;;;2.70;68.30;;;;;;5032692;28;20107;-69
2022/01/07 10:30:46;;;;;;;3.78;1.92;;;2.80;69.20;;;;;;5019253;28;20441;-69
2022/01/07 10:33:22;;;;;;;6.25;2.58;;;2.90;67.80;;;;;;5021140;28;20045;-69
2022/01/07 10:35:51;;;;;;;3.47;2.30;;;3.00;67.80;;;;;;5024699;28;20121;-69
2022/01/07 10:38:20;;;;;;;6.03;2.65;;;3.00;68.60;;;;;;5024172;28;20025;-68
2022/01/07 10:40:47;;;;;;;5.82;2.22;;;3.00;68.50;;;;;;5018898;28;20033;-68
2022/01/07 10:43:20;;;;;;;5.32;3.03;;;3.10;69.10;;;;;;5020335;28;20088;-68
2022/01/07 10:45:53;;;;;;;17.75;13.20;;;3.10;68.60;;;;;;5024898;28;20117;-69
2022/01/07 10:48:22;;;;;;;5.70;3.15;;;3.20;68.20;;;;;;5021511;28;20084;-69
2022/01/07 10:50:50;;;;;;;7.95;3.22;;;3.10;66.90;;;;;;5022968;28;20095;-69
2022/01/07 10:53:15;;;;;;;5.22;2.90;;;3.10;68.60;;;;;;5020381;28;20029;-69
2022/01/07 10:55:56;;;;;;;5.75;2.67;;;3.20;68.50;;;;;;5025866;28;20029;-69
2022/01/07 10:58:21;;;;;;;8.02;4.22;;;3.10;66.10;;;;;;5021846;28;20153;-70
2022/01/07 11:00:47;;;;;;;6.60;3.05;;;2.90;67.00;;;;;;5021752;28;20448;-70
2022/01/07 11:03:13;;;;;;;10.52;4.80;;;2.90;68.00;;;;;;5017226;28;20049;-68
2022/01/07 11:05:39;;;;;;;6.75;3.50;;;3.00;67.60;;;;;;5023473;28;20037;-68
2022/01/07 11:08:05;;;;;;;5.88;3.88;;;3.10;67.80;;;;;;5021959;28;20030;-68
2022/01/07 11:10:31;;;;;;;7.18;3.58;;;3.10;68.50;;;;;;5025696;28;20087;-67
2022/01/07 11:12:58;;;;;;;6.60;3.88;;;3.00;67.00;;;;;;5018988;28;20430;-68
2022/01/07 11:15:23;;;;;;;5.38;3.15;;;3.10;68.00;;;;;;5020941;28;20128;-69
2022/01/07 11:17:49;;;;;;;5.53;3.15;;;3.10;67.50;;;;;;5014462;28;20031;-67
2022/01/07 11:20:20;;;;;;;7.22;3.90;;;3.20;67.90;;;;;;5015360;28;20041;-69
2022/01/07 11:22:49;;;;;;;44.70;23.55;;;3.30;66.80;;;;;;5015408;28;20152;-68
2022/01/07 11:25:15;;;;;;;5.53;3.90;;;3.30;69.60;;;;;;5022268;28;20025;-68
2022/01/07 11:27:50;;;;;;;5.60;3.28;;;3.40;67.40;;;;;;5021739;28;20072;-68
2022/01/07 11:30:18;;;;;;;5.88;3.10;;;3.40;65.60;;;;;;5022162;28;20036;-68
2022/01/07 11:32:52;;;;;;;8.07;3.97;;;3.30;66.90;;;;;;5011526;28;20028;-68
2022/01/07 11:35:20;;;;;;;6.43;4.55;;;3.40;65.90;;;;;;5019360;28;20029;-69
2022/01/07 11:37:55;;;;;;;5.32;2.33;;;3.00;64.70;;;;;;5016492;28;20036;-68
2022/01/07 11:40:26;;;;;;;4.35;3.33;;;2.80;67.20;;;;;;5019695;28;20037;-68
2022/01/07 11:42:52;;;;;;;3.28;2.15;;;2.80;66.60;;;;;;5021624;28;20072;-68
2022/01/07 11:45:31;;;;;;;4.60;2.40;;;2.80;67.30;;;;;;5012561;28;20167;-68
2022/01/07 11:48:24;;;;;;;5.82;3.55;;;2.90;67.00;;;;;;5012488;28;20548;-69
2022/01/07 11:50:55;;;;;;;5.95;2.58;;;3.10;67.70;;;;;;5016954;28;20029;-69
2022/01/07 11:53:29;;;;;;;5.00;2.92;;;3.30;66.30;;;;;;5021762;28;20017;-70
2022/01/07 11:56:02;;;;;;;6.18;2.80;;;3.50;65.20;;;;;;5019513;28;20505;-70
2022/01/07 11:58:56;;;;;;;7.60;4.65;;;3.60;64.90;;;;;;5018405;28;20480;-69
2022/01/07 12:01:24;;;;;;;4.68;2.70;;;3.70;63.20;;;;;;5012406;28;20041;-67
2022/01/07 12:03:51;;;;;;;4.45;2.33;;;3.70;62.30;;;;;;5016423;28;20026;-68
2022/01/07 12:06:26;;;;;;;5.72;3.10;;;3.70;61.40;;;;;;5020236;28;20037;-68
2022/01/07 12:09:09;;;;;;;3.90;2.42;;;3.70;61.40;;;;;;5017968;28;20034;-69
2022/01/07 12:11:42;;;;;;;3.65;2.17;;;3.70;60.90;;;;;;5013184;28;20042;-69
2022/01/07 12:14:18;;;;;;;4.18;2.97;;;3.60;61.30;;;;;;5015513;28;20036;-70
2022/01/07 12:16:46;;;;;;;5.30;2.30;;;3.70;61.80;;;;;;5023501;28;20037;-70
2022/01/07 12:19:12;;;;;;;8.43;4.93;;;3.80;64.10;;;;;;5023137;28;20504;-71
2022/01/07 12:21:57;;;;;;;6.13;3.03;;;3.80;58.60;;;;;;5016073;28;20022;-68
2022/01/07 12:24:28;;;;;;;8.85;5.30;;;3.70;59.30;;;;;;5023465;28;20037;-68
2022/01/07 12:27:07;;;;;;;5.38;3.08;;;3.50;59.30;;;;;;5014504;28;20175;-68
2022/01/07 12:29:35;;;;;;;17.65;12.35;;;3.50;57.40;;;;;;5019657;28;20707;-68
2022/01/07 12:32:04;;;;;;;8.63;4.80;;;3.50;58.10;;;;;;5017706;28;20029;-68
2022/01/07 12:34:33;;;;;;;12.60;7.32;;;3.60;61.10;;;;;;5024252;28;20029;-68
2022/01/07 12:37:07;;;;;;;3.72;2.25;;;3.70;57.50;;;;;;5026733;28;20045;-68
2022/01/07 12:39:42;;;;;;;5.30;2.85;;;3.70;57.30;;;;;;5026454;28;20526;-69
2022/01/07 12:42:09;;;;;;;7.60;4.45;;;3.70;57.60;;;;;;5019006;28;20072;-68
2022/01/07 12:44:43;;;;;;;20.42;11.48;;;3.80;57.20;;;;;;5023119;28;20490;-69
2022/01/07 12:47:12;;;;;;;7.18;4.55;;;3.90;57.50;;;;;;5019862;28;20049;-68
2022/01/07 12:49:46;;;;;;;101.00;59.92;;;3.90;57.70;;;;;;5014191;28;20040;-69
2022/01/07 12:52:31;;;;;;;5.47;3.47;;;4.00;57.70;;;;;;5022987;28;20037;-69
2022/01/07 12:54:59;;;;;;;26.35;16.52;;;4.00;55.50;;;;;;5021183;28;23716;-68
2022/01/07 12:57:46;;;;;;;17.02;10.15;;;4.00;56.30;;;;;;5017436;28;20040;-69
2022/01/07 13:00:26;;;;;;;14.20;7.32;;;3.90;55.00;;;;;;5021537;28;20036;-69
2022/01/07 13:03:12;;;;;;;5.35;2.88;;;3.80;54.80;;;;;;5012648;28;20551;-68